Aérodrome :
LOGIN :

S'inscrire | Disclaimer

   EN    FR    IT 

 










Légende :    VFR   VFR Marginal   IFR   IFR Intensif   IFR Très Intensif
Visi : 
Plafond : 
>= 8 km
>= 3000ft
5 à 8 km
1000 à 3000 ft
1500m à 5 km
500 à 1000 ft
800 à 1500m
200 à 500 ft
< 800m
< 200 ft
Symboles :   Orages  Brouillard  Fortes neiges  Fortes précipitations  Vent > 20 kt
SIGMETs :   Divers  Orages  Givrage  Turbulence  Onde Orograph.  Cendres Volcan.






- Altitude de l'aérodrome : 203 ft
- Code IATA : XMJ


LFBM - Mont-De-Marsan

DERNIER METAR :
  • 200800Z AUTO 03005KT CAVOK M01/M03 Q1036 BECMG OVC008 BKN040

METARs EXPIRÉS :
  • 200730Z AUTO 03004KT CAVOK M02/M03 Q1035 BECMG OVC008 BKN040
  • 200700Z AUTO 03004KT CAVOK M01/M03 Q1035 TEMPO 4900 BR BECMG OVC008 BKN040
  • 200630Z AUTO 02005KT CAVOK M01/M03 Q1035 TEMPO 4900 BR BECMG OVC008 BKN040
  • 200600Z AUTO 02005KT CAVOK M00/M02 Q1035 TEMPO 4900 BR BKN006
  • 200530Z AUTO 02006KT CAVOK M00/M02 Q1035 TEMPO 4900 BR BKN006

TAF TAF LFBM
Valide du 20 à 03h jusqu'au 21 à 03h UTC


200200Z 2003/2103 03012KT CAVOK
TEMPO 2003/2008 4900 BR BKN006
BECMG 2008/2010 OVC008 BKN040
BECMG 2010/2012 SCT010 BKN040



MET'MAP, la Météo Aéronautique d'un coup d'oeil ! - Copyright ORBIFLY Décembre 2007 - Disclaimer

ORBIFLY MET'MAP TEAM :

Programmation & Développement : Alexandra Zaïnal
Sur une idée originale de : Baudouin d'Aumeries
Assistance à la programmation : Marc-Olivier Méhu
Soutien technique & logistique : Manuel Goepfert

Contact : metmap@orbifly.com




SOURCES & CREDITS :

   NOAA